Time;durP1;ratioP1;P1;durP2;ratioP2;P2;SDS_P1;SDS_P2;PMS_P1;PMS_P2;Temp;Humidity;BMP_temperature;BMP_pressure;BME280_temperature;BME280_humidity;BME280_pressure;Samples;Min_cycle;Max_cycle;Signal;HPM_P1;HPM_P2
2023/07/08 00:01:20;;;;;;;14.88;7.35;;;;;;;;;;6271934;28;20052;-74
2023/07/08 00:04:20;;;;;;;11.38;8.10;;;;;;;;;;6278812;28;20033;-85
2023/07/08 00:07:21;;;;;;;12.57;7.43;;;;;;;;;;6290858;28;20059;-83
2023/07/08 00:10:23;;;;;;;12.80;7.00;;;;;;;;;;6287999;28;20052;-85
2023/07/08 00:13:23;;;;;;;;;;;;;;;;;;6283483;28;20696;-87
2023/07/08 00:16:23;;;;;;;10.10;7.07;;;;;;;;;;6280135;28;20421;-89
2023/07/08 00:19:24;;;;;;;13.30;7.60;;;;;;;;;;6289169;28;20091;-81
2023/07/08 00:22:24;;;;;;;15.85;9.10;;;;;;;;;;6293638;28;20582;-82
2023/07/08 00:25:24;;;;;;;12.90;8.18;;;;;;;;;;6291753;28;20104;-87
2023/07/08 00:28:25;;;;;;;15.90;8.63;;;;;;;;;;6286446;28;20450;-83
2023/07/08 00:31:25;;;;;;;13.43;7.97;;;;;;;;;;6281149;28;20025;-83
2023/07/08 00:34:25;;;;;;;12.77;7.27;;;;;;;;;;6282917;28;20029;-87
2023/07/08 00:37:29;;;;;;;10.77;7.22;;;;;;;;;;6285071;28;20021;-84
2023/07/08 00:40:31;;;;;;;12.30;7.68;;;;;;;;;;6278797;28;20267;-88
2023/07/08 00:43:39;;;;;;;22.13;8.18;;;;;;;;;;6290257;28;20063;-89
2023/07/08 00:46:39;;;;;;;14.52;9.43;;;;;;;;;;6285848;28;20025;-85
2023/07/08 00:49:48;;;;;;;16.80;9.82;;;;;;;;;;6278294;28;20032;-86
2023/07/08 00:52:49;;;;;;;13.70;9.07;;;;;;;;;;6275204;28;20045;-76
2023/07/08 00:55:51;;;;;;;10.50;6.83;;;;;;;;;;6273431;28;20055;-85
2023/07/08 00:58:58;;;;;;;12.77;8.13;;;;;;;;;;6274911;28;20606;-83
2023/07/08 01:02:00;;;;;;;10.13;6.47;;;;;;;;;;6282087;28;20115;-84
2023/07/08 01:05:00;;;;;;;11.70;7.53;;;;;;;;;;6286885;28;20025;-89
2023/07/08 01:08:03;;;;;;;15.30;8.32;;;;;;;;;;6279545;28;20406;-88
2023/07/08 01:11:04;;;;;;;11.88;7.50;;;;;;;;;;6274406;28;20017;-88
2023/07/08 01:14:06;;;;;;;23.30;8.47;;;;;;;;;;6277220;28;20108;-87
2023/07/08 01:17:06;;;;;;;13.82;8.38;;;;;;;;;;6277218;28;20669;-86
2023/07/08 01:20:06;;;;;;;10.87;7.90;;;;;;;;;;6274332;28;20056;-85
2023/07/08 01:23:07;;;;;;;11.32;6.28;;;;;;;;;;6268385;28;20021;-87
2023/07/08 01:26:08;;;;;;;13.83;7.80;;;;;;;;;;6269132;28;20053;-84
2023/07/08 01:29:08;;;;;;;13.18;7.30;;;;;;;;;;6269810;28;20024;-86
2023/07/08 01:32:13;;;;;;;10.52;7.07;;;;;;;;;;6272819;28;20072;-87
2023/07/08 01:35:14;;;;;;;12.35;7.30;;;;;;;;;;6275733;28;20371;-88
2023/07/08 01:38:15;;;;;;;11.07;6.95;;;;;;;;;;6278885;28;20029;-87
2023/07/08 01:41:16;;;;;;;9.18;6.45;;;;;;;;;;6283584;28;20001;-85
2023/07/08 01:44:49;;;;;;;14.73;7.50;;;;;;;;;;6283613;28;20033;-89
2023/07/08 01:47:59;;;;;;;11.85;7.65;;;;;;;;;;6230058;28;20048;-87
2023/07/08 01:51:03;;;;;;;13.63;8.50;;;;;;;;;;6259979;28;20035;-88
2023/07/08 01:54:04;;;;;;;12.68;8.25;;;;;;;;;;6268158;28;20013;-87
2023/07/08 01:57:04;;;;;;;11.38;7.88;;;;;;;;;;6269474;28;20036;-86
2023/07/08 02:00:05;;;;;;;13.30;8.40;;;;;;;;;;6268166;28;20021;-86
2023/07/08 02:03:05;;;;;;;11.07;6.90;;;;;;;;;;6267864;28;20020;-73
2023/07/08 02:06:05;;;;;;;12.57;6.82;;;;;;;;;;6264944;28;20340;-73
2023/07/08 02:09:06;;;;;;;14.48;6.93;;;;;;;;;;6267018;28;20025;-73
2023/07/08 02:12:06;;;;;;;10.10;6.75;;;;;;;;;;6259665;28;20024;-75
2023/07/08 02:15:08;;;;;;;11.80;8.20;;;;;;;;;;6267888;28;20028;-72
2023/07/08 02:18:08;;;;;;;12.52;8.02;;;;;;;;;;6263176;28;20128;-73
2023/07/08 02:21:08;;;;;;;11.63;7.20;;;;;;;;;;6266879;28;20021;-74
2023/07/08 02:24:09;;;;;;;13.38;8.23;;;;;;;;;;6260642;28;20607;-73
2023/07/08 02:27:09;;;;;;;10.75;6.10;;;;;;;;;;6268231;28;20021;-73
2023/07/08 02:30:09;;;;;;;11.57;7.32;;;;;;;;;;6266763;28;20017;-73
2023/07/08 02:33:10;;;;;;;10.33;6.23;;;;;;;;;;6267458;28;20108;-74
2023/07/08 02:36:10;;;;;;;9.30;6.80;;;;;;;;;;6268044;28;20025;-73
2023/07/08 02:39:11;;;;;;;10.30;7.17;;;;;;;;;;6267050;28;20031;-73
2023/07/08 02:42:11;;;;;;;11.95;7.70;;;;;;;;;;6265906;28;20021;-73
2023/07/08 02:45:12;;;;;;;8.15;5.20;;;;;;;;;;6266594;28;20020;-73
2023/07/08 02:48:12;;;;;;;9.82;5.65;;;;;;;;;;6260874;28;20386;-73
2023/07/08 02:51:12;;;;;;;9.57;6.20;;;;;;;;;;6267230;28;20471;-73
2023/07/08 02:54:12;;;;;;;8.60;6.10;;;;;;;;;;6266963;28;20255;-73
2023/07/08 02:57:12;;;;;;;9.70;6.77;;;;;;;;;;6265005;28;20111;-73
2023/07/08 03:00:13;;;;;;;13.38;8.20;;;;;;;;;;6267287;28;20020;-73
2023/07/08 03:03:16;;;;;;;11.07;7.93;;;;;;;;;;6266579;28;20013;-73
2023/07/08 03:06:16;;;;;;;8.90;6.78;;;;;;;;;;6260709;28;20060;-73
2023/07/08 03:09:17;;;;;;;11.85;7.55;;;;;;;;;;6261228;28;20024;-73
2023/07/08 03:12:17;;;;;;;10.52;7.65;;;;;;;;;;6262786;28;20021;-87
2023/07/08 03:15:17;;;;;;;8.30;5.97;;;;;;;;;;6264352;28;20379;-89
2023/07/08 03:18:18;;;;;;;11.23;6.63;;;;;;;;;;6267989;28;20147;-86
2023/07/08 03:21:18;;;;;;;11.73;7.28;;;;;;;;;;6268716;28;20009;-88
2023/07/08 03:24:20;;;;;;;14.10;8.20;;;;;;;;;;6272541;28;20139;-85
2023/07/08 03:27:20;;;;;;;12.63;8.38;;;;;;;;;;6266574;28;20033;-84
2023/07/08 03:30:20;;;;;;;7.47;5.65;;;;;;;;;;6272888;28;20048;-84
2023/07/08 03:33:21;;;;;;;11.68;6.68;;;;;;;;;;6267140;28;20507;-74
2023/07/08 03:36:24;;;;;;;9.97;6.53;;;;;;;;;;6266296;28;20526;-74
2023/07/08 03:39:25;;;;;;;12.00;7.60;;;;;;;;;;6266584;28;20108;-73
2023/07/08 03:42:25;;;;;;;10.45;6.28;;;;;;;;;;6266461;28;20032;-74
2023/07/08 03:45:25;;;;;;;9.47;6.13;;;;;;;;;;6266657;28;20021;-74
2023/07/08 03:48:26;;;;;;;9.43;6.20;;;;;;;;;;6266148;28;20029;-74
2023/07/08 03:51:29;;;;;;;15.10;7.78;;;;;;;;;;6266551;28;20067;-74
2023/07/08 03:54:29;;;;;;;13.32;9.02;;;;;;;;;;6266264;28;20024;-74
2023/07/08 03:57:29;;;;;;;13.07;9.35;;;;;;;;;;6266412;28;20519;-74
2023/07/08 04:00:30;;;;;;;12.27;8.70;;;;;;;;;;6265652;28;20033;-74
2023/07/08 04:03:30;;;;;;;13.83;7.63;;;;;;;;;;6266292;28;20112;-74
2023/07/08 04:06:31;;;;;;;15.32;9.65;;;;;;;;;;6266598;28;20025;-74
2023/07/08 04:09:31;;;;;;;16.17;10.23;;;;;;;;;;6270748;28;20127;-73
2023/07/08 04:12:31;;;;;;;14.70;10.68;;;;;;;;;;6270161;28;20017;-74
2023/07/08 04:15:32;;;;;;;13.23;8.98;;;;;;;;;;6270046;28;20013;-74
2023/07/08 04:18:32;;;;;;;14.93;9.57;;;;;;;;;;6269582;28;20392;-74
2023/07/08 04:21:32;;;;;;;15.30;10.07;;;;;;;;;;6269422;28;20079;-73
2023/07/08 04:24:32;;;;;;;14.82;9.07;;;;;;;;;;6270852;28;20276;-87
2023/07/08 04:27:32;;;;;;;15.15;10.13;;;;;;;;;;6270636;28;20033;-86
2023/07/08 04:30:33;;;;;;;18.37;10.23;;;;;;;;;;6263772;28;20025;-87
2023/07/08 04:33:33;;;;;;;14.00;9.13;;;;;;;;;;6265304;28;20079;-86
2023/07/08 04:36:33;;;;;;;17.73;9.83;;;;;;;;;;6272291;28;20020;-88
2023/07/08 04:39:34;;;;;;;15.13;10.67;;;;;;;;;;6270491;28;20479;-89
2023/07/08 04:42:34;;;;;;;13.10;9.57;;;;;;;;;;6267367;28;20016;-89
2023/07/08 04:45:37;;;;;;;15.13;9.00;;;;;;;;;;6270451;28;20490;-90
2023/07/08 04:48:37;;;;;;;16.05;8.60;;;;;;;;;;6267255;28;20079;-88
2023/07/08 04:51:38;;;;;;;17.13;8.30;;;;;;;;;;6270446;28;20562;-86
2023/07/08 04:54:38;;;;;;;16.90;9.37;;;;;;;;;;6269095;28;20035;-89
2023/07/08 04:57:38;;;;;;;15.75;8.15;;;;;;;;;;6270442;28;20017;-90
2023/07/08 05:00:38;;;;;;;12.07;7.50;;;;;;;;;;6270190;28;20016;-87
2023/07/08 05:03:38;;;;;;;16.97;9.43;;;;;;;;;;6271260;28;20456;-87
2023/07/08 05:06:39;;;;;;;10.77;7.95;;;;;;;;;;6272217;28;20052;-89
2023/07/08 05:09:39;;;;;;;13.33;8.43;;;;;;;;;;6272227;28;20124;-89
2023/07/08 05:12:39;;;;;;;12.20;8.07;;;;;;;;;;6270209;28;20017;-89
2023/07/08 05:15:39;;;;;;;13.85;7.43;;;;;;;;;;6272020;28;20029;-89
2023/07/08 05:18:39;;;;;;;38.57;11.43;;;;;;;;;;6271263;28;20558;-88
2023/07/08 05:21:41;;;;;;;13.85;8.60;;;;;;;;;;6272174;28;20025;-88
2023/07/08 05:24:41;;;;;;;12.68;7.63;;;;;;;;;;6275803;28;20222;-87
2023/07/08 05:27:41;;;;;;;13.67;7.67;;;;;;;;;;6273962;28;20032;-83
2023/07/08 05:30:42;;;;;;;13.53;7.87;;;;;;;;;;6264819;28;20032;-88
2023/07/08 05:33:42;;;;;;;13.60;7.30;;;;;;;;;;6271639;28;20028;-87
2023/07/08 05:36:42;;;;;;;14.70;8.73;;;;;;;;;;6270396;28;20434;-88
2023/07/08 05:39:43;;;;;;;16.90;9.73;;;;;;;;;;6272654;28;20037;-88
2023/07/08 05:42:44;;;;;;;16.90;10.63;;;;;;;;;;6275433;28;20029;-88
2023/07/08 05:45:44;;;;;;;17.25;10.23;;;;;;;;;;6271781;28;20442;-86
2023/07/08 05:48:44;;;;;;;15.73;9.27;;;;;;;;;;6270133;28;20025;-88
2023/07/08 05:51:44;;;;;;;13.17;8.40;;;;;;;;;;6269542;28;20086;-87
2023/07/08 05:54:45;;;;;;;16.43;8.63;;;;;;;;;;6262932;28;20080;-88
2023/07/08 05:57:45;;;;;;;17.07;9.37;;;;;;;;;;6267340;28;20095;-87
2023/07/08 06:00:45;;;;;;;14.33;8.83;;;;;;;;;;6251078;28;20057;-86
2023/07/08 06:03:45;;;;;;;16.40;8.87;;;;;;;;;;6268791;28;20035;-86
2023/07/08 06:06:45;;;;;;;12.73;7.73;;;;;;;;;;6268693;28;20031;-86
2023/07/08 06:09:46;;;;;;;17.83;9.60;;;;;;;;;;6267915;28;20047;-86
2023/07/08 06:12:46;;;;;;;15.88;8.25;;;;;;;;;;6267423;28;20021;-87
2023/07/08 06:15:46;;;;;;;16.77;9.27;;;;;;;;;;6267286;28;20024;-90
2023/07/08 06:18:46;;;;;;;17.53;9.57;;;;;;;;;;6267756;28;20523;-87
2023/07/08 06:21:46;;;;;;;15.50;8.33;;;;;;;;;;6267903;28;20395;-86
2023/07/08 06:24:47;;;;;;;15.43;9.23;;;;;;;;;;6267327;28;20594;-87
2023/07/08 06:27:47;;;;;;;14.07;8.32;;;;;;;;;;6267017;28;20020;-89
2023/07/08 06:30:48;;;;;;;15.53;8.13;;;;;;;;;;6266439;28;20387;-87
2023/07/08 06:33:48;;;;;;;15.38;8.68;;;;;;;;;;6267499;28;20021;-87
2023/07/08 06:36:48;;;;;;;16.27;9.57;;;;;;;;;;6267048;28;20071;-89
2023/07/08 06:39:49;;;;;;;15.15;6.95;;;;;;;;;;6247818;28;20017;-89
2023/07/08 06:42:49;;;;;;;14.15;6.97;;;;;;;;;;6262305;28;20012;-88
2023/07/08 06:45:49;;;;;;;10.18;7.03;;;;;;;;;;6264519;28;20388;-90
2023/07/08 06:48:50;;;;;;;13.47;7.97;;;;;;;;;;6266890;28;20027;-90
2023/07/08 06:51:50;;;;;;;;;;;;;;;;;;6267700;28;20533;-87
2023/07/08 06:54:50;;;;;;;12.65;7.22;;;;;;;;;;6268111;28;19904;-88
2023/07/08 06:57:50;;;;;;;;;;;;;;;;;;6255969;28;20025;-87
2023/07/08 07:00:50;;;;;;;15.32;5.63;;;;;;;;;;6268530;28;19909;-88
2023/07/08 07:03:50;;;;;;;;;;;;;;;;;;6273705;28;20510;-88
2023/07/08 07:06:50;;;;;;;12.30;5.15;;;;;;;;;;6272639;28;19904;-87
2023/07/08 07:09:50;;;;;;;;;;;;;;;;;;6278918;28;20029;-86
2023/07/08 07:12:51;;;;;;;7.25;4.18;;;;;;;;;;6271722;28;20440;-86
2023/07/08 07:15:51;;;;;;;;;;;;;;;;;;6268936;28;20103;-86
2023/07/08 07:18:51;;;;;;;7.65;4.68;;;;;;;;;;6266629;28;19967;-86
2023/07/08 07:21:51;;;;;;;;;;;;;;;;;;6268526;28;20037;-84
2023/07/08 07:24:52;;;;;;;6.63;3.90;;;;;;;;;;6269760;28;20673;-84
2023/07/08 07:27:52;;;;;;;8.03;4.40;;;;;;;;;;6262419;28;20495;-85
2023/07/08 07:30:56;;;;;;;5.67;4.07;;;;;;;;;;6265879;28;20108;-84
2023/07/08 07:33:56;;;;;;;6.68;4.03;;;;;;;;;;6259249;28;20025;-84
2023/07/08 07:36:57;;;;;;;9.00;4.38;;;;;;;;;;6265754;28;20095;-86
2023/07/08 07:39:58;;;;;;;9.02;3.55;;;;;;;;;;6265746;28;20029;-82
2023/07/08 07:42:58;;;;;;;6.70;4.70;;;;;;;;;;6262927;28;20060;-83
2023/07/08 07:45:58;;;;;;;7.67;4.50;;;;;;;;;;6257560;28;20108;-82
2023/07/08 07:48:58;;;;;;;7.70;4.27;;;;;;;;;;6270008;28;20025;-85
2023/07/08 07:51:58;;;;;;;7.68;4.00;;;;;;;;;;6264258;28;20024;-82
2023/07/08 07:54:59;;;;;;;6.60;3.63;;;;;;;;;;6270151;28;20017;-77
2023/07/08 07:57:59;;;;;;;11.98;3.75;;;;;;;;;;6268407;28;20080;-77
2023/07/08 08:01:00;;;;;;;7.27;4.03;;;;;;;;;;6268860;28;20048;-77
2023/07/08 08:04:00;;;;;;;6.53;3.53;;;;;;;;;;6266870;28;20455;-77
2023/07/08 08:07:00;;;;;;;5.60;3.63;;;;;;;;;;6263961;28;20017;-76
2023/07/08 08:10:00;;;;;;;7.13;3.90;;;;;;;;;;6265556;28;20553;-76
2023/07/08 08:13:01;;;;;;;5.63;3.47;;;;;;;;;;6248254;28;20491;-75
2023/07/08 08:16:02;;;;;;;6.40;3.97;;;;;;;;;;6267771;28;20573;-75
2023/07/08 08:19:02;;;;;;;4.68;2.95;;;;;;;;;;6265349;28;20053;-75
2023/07/08 08:22:02;;;;;;;5.30;3.17;;;;;;;;;;6256125;28;20032;-75
2023/07/08 08:25:02;;;;;;;4.80;2.55;;;;;;;;;;6263462;28;20036;-75
2023/07/08 08:28:03;;;;;;;4.47;3.08;;;;;;;;;;6266114;28;20040;-75
2023/07/08 08:31:03;;;;;;;3.20;2.47;;;;;;;;;;6259957;28;20025;-75
2023/07/08 08:34:03;;;;;;;4.13;2.80;;;;;;;;;;6266117;28;20013;-82
2023/07/08 08:37:03;;;;;;;5.80;2.83;;;;;;;;;;6254632;28;20773;-84
2023/07/08 08:40:04;;;;;;;3.97;2.13;;;;;;;;;;6255617;28;20033;-83
2023/07/08 08:43:06;;;;;;;6.35;2.50;;;;;;;;;;6268963;28;20028;-83
2023/07/08 08:46:10;;;;;;;5.32;3.35;;;;;;;;;;6271073;28;20029;-82
2023/07/08 08:49:11;;;;;;;5.53;2.60;;;;;;;;;;6269195;28;20028;-82
2023/07/08 08:52:11;;;;;;;5.80;2.75;;;;;;;;;;6268883;28;20032;-84
2023/07/08 08:55:13;;;;;;;5.93;2.60;;;;;;;;;;6266602;28;20021;-83
2023/07/08 08:58:20;;;;;;;11.20;3.13;;;;;;;;;;6268486;28;20025;-82
2023/07/08 09:01:20;;;;;;;4.53;2.72;;;;;;;;;;6266929;28;20105;-80
2023/07/08 09:04:27;;;;;;;6.30;3.07;;;;;;;;;;6266981;28;20043;-82
2023/07/08 09:07:29;;;;;;;6.53;3.15;;;;;;;;;;6258820;28;20545;-83
2023/07/08 09:10:42;;;;;;;6.22;3.15;;;;;;;;;;6264009;28;20029;-83
2023/07/08 09:13:42;;;;;;;5.03;2.88;;;;;;;;;;6264771;28;20029;-84
2023/07/08 09:17:01;;;;;;;3.33;2.40;;;;;;;;;;6259885;28;20388;-83
2023/07/08 09:20:24;;;;;;;5.60;3.08;;;;;;;;;;6266237;28;20107;-83
2023/07/08 09:23:27;;;;;;;5.22;2.38;;;;;;;;;;6261945;28;20021;-84
2023/07/08 09:26:30;;;;;;;3.72;2.40;;;;;;;;;;6260764;28;20029;-85
2023/07/08 09:29:30;;;;;;;4.07;2.20;;;;;;;;;;6269033;28;20371;-84
2023/07/08 09:32:33;;;;;;;4.03;2.00;;;;;;;;;;6268614;28;20064;-84
2023/07/08 09:35:41;;;;;;;3.25;2.50;;;;;;;;;;6269387;28;20565;-82
2023/07/08 09:38:41;;;;;;;3.47;2.50;;;;;;;;;;6266183;28;20017;-84
2023/07/08 09:41:41;;;;;;;;;;;;;;;;;;6267482;28;20060;-82
2023/07/08 09:44:44;;;;;;;5.80;2.45;;;;;;;;;;6265995;28;20375;-83
2023/07/08 09:47:45;;;;;;;5.18;2.30;;;;;;;;;;6266646;28;20032;-84
2023/07/08 09:50:47;;;;;;;7.78;2.50;;;;;;;;;;6263760;28;20017;-79
2023/07/08 09:53:48;;;;;;;3.50;2.58;;;;;;;;;;6266966;28;20111;-82
2023/07/08 09:56:48;;;;;;;;;;;;;;;;;;6267005;28;20495;-83
2023/07/08 09:59:53;;;;;;;4.82;2.53;;;;;;;;;;6248798;28;19923;-83
2023/07/08 10:02:57;;;;;;;7.80;2.13;;;;;;;;;;6267589;28;20542;-82
2023/07/08 10:06:00;;;;;;;6.78;2.72;;;;;;;;;;6267484;28;20487;-81
2023/07/08 10:09:04;;;;;;;4.53;2.60;;;;;;;;;;6265701;28;20031;-83
2023/07/08 10:12:09;;;;;;;4.85;2.60;;;;;;;;;;6266589;28;20020;-81
2023/07/08 10:15:33;;;;;;;7.40;2.35;;;;;;;;;;6267443;28;20539;-82
2023/07/08 10:18:33;;;;;;;5.10;2.78;;;;;;;;;;6252699;28;20044;-85
2023/07/08 10:21:33;;;;;;;;;;;;;;;;;;6268437;28;20017;-84
2023/07/08 10:24:33;;;;;;;2.92;2.40;;;;;;;;;;6266490;28;19910;-84
2023/07/08 10:27:36;;;;;;;4.75;2.22;;;;;;;;;;6262780;28;20025;-81
2023/07/08 10:30:43;;;;;;;4.05;2.60;;;;;;;;;;6259843;28;20095;-84
2023/07/08 10:33:51;;;;;;;25.95;5.07;;;;;;;;;;6265916;28;20125;-83
2023/07/08 10:37:14;;;;;;;6.38;2.80;;;;;;;;;;6264239;28;20020;-84
2023/07/08 10:40:33;;;;;;;3.17;1.92;;;;;;;;;;6265193;28;20032;-84
2023/07/08 10:43:46;;;;;;;6.25;2.30;;;;;;;;;;6265215;28;20020;-83
2023/07/08 10:47:05;;;;;;;6.38;2.45;;;;;;;;;;6266285;28;20024;-82
2023/07/08 10:50:18;;;;;;;3.70;2.40;;;;;;;;;;6267037;28;20029;-81
2023/07/08 10:53:30;;;;;;;6.90;2.30;;;;;;;;;;6267678;28;20033;-82
2023/07/08 10:56:37;;;;;;;4.82;2.20;;;;;;;;;;6267559;28;20013;-84
2023/07/08 10:59:42;;;;;;;5.38;2.90;;;;;;;;;;6263535;28;20052;-84
2023/07/08 11:03:01;;;;;;;4.50;2.50;;;;;;;;;;6254910;28;20027;-84
2023/07/08 11:06:13;;;;;;;4.05;2.28;;;;;;;;;;6267035;28;20099;-83
2023/07/08 11:09:18;;;;;;;4.38;2.40;;;;;;;;;;6267530;28;20049;-84
2023/07/08 11:12:34;;;;;;;4.40;2.28;;;;;;;;;;6266216;28;20036;-83
2023/07/08 11:15:39;;;;;;;8.27;2.88;;;;;;;;;;6266815;28;20549;-83
2023/07/08 11:18:48;;;;;;;6.32;2.53;;;;;;;;;;6276858;28;20039;-83
2023/07/08 11:21:50;;;;;;;6.88;2.80;;;;;;;;;;6277456;28;20021;-84
2023/07/08 11:24:53;;;;;;;5.55;2.65;;;;;;;;;;6272212;28;20431;-83
2023/07/08 11:27:55;;;;;;;3.78;2.22;;;;;;;;;;6274668;28;20028;-84
2023/07/08 11:30:58;;;;;;;4.22;2.45;;;;;;;;;;6271513;28;20100;-84
2023/07/08 11:33:59;;;;;;;3.58;2.17;;;;;;;;;;6266735;28;20684;-83
2023/07/08 11:36:59;;;;;;;7.18;2.15;;;;;;;;;;6248431;28;20061;-83
2023/07/08 11:40:07;;;;;;;3.47;2.10;;;;;;;;;;6272470;28;20392;-82
2023/07/08 11:43:07;;;;;;;3.28;2.05;;;;;;;;;;6275067;28;20059;-83
2023/07/08 11:46:14;;;;;;;5.30;2.53;;;;;;;;;;6271621;28;20017;-82
2023/07/08 11:49:15;;;;;;;3.22;2.10;;;;;;;;;;6271694;28;20092;-82
2023/07/08 11:52:19;;;;;;;3.88;2.20;;;;;;;;;;6259264;28;20028;-83
2023/07/08 11:55:28;;;;;;;7.03;2.70;;;;;;;;;;6270827;28;20063;-82
2023/07/08 11:58:31;;;;;;;3.08;2.20;;;;;;;;;;6271122;28;20108;-84
2023/07/08 12:01:46;;;;;;;3.20;2.40;;;;;;;;;;6270913;28;20013;-83
2023/07/08 12:04:55;;;;;;;6.85;2.33;;;;;;;;;;6277429;28;20048;-77
2023/07/08 12:07:58;;;;;;;3.83;2.22;;;;;;;;;;6273157;28;20495;-76
2023/07/08 12:10:59;;;;;;;4.90;2.97;;;;;;;;;;6271262;28;20009;-75
2023/07/08 12:14:00;;;;;;;4.60;2.42;;;;;;;;;;6264016;28;20013;-75
2023/07/08 12:17:01;;;;;;;4.15;2.08;;;;;;;;;;6270864;28;20095;-75
2023/07/08 12:20:03;;;;;;;7.33;2.47;;;;;;;;;;6270317;28;20380;-76
2023/07/08 12:23:10;;;;;;;3.78;2.45;;;;;;;;;;6271100;28;20693;-74
2023/07/08 12:26:10;;;;;;;4.70;2.22;;;;;;;;;;6268855;28;20407;-75
2023/07/08 12:29:12;;;;;;;5.30;2.20;;;;;;;;;;6270514;28;20032;-75
2023/07/08 12:32:14;;;;;;;7.78;2.42;;;;;;;;;;6269877;28;20017;-84
2023/07/08 12:35:25;;;;;;;3.00;1.92;;;;;;;;;;6267259;28;20096;-83
2023/07/08 12:38:27;;;;;;;7.70;2.47;;;;;;;;;;6269766;28;20017;-83
2023/07/08 12:41:29;;;;;;;5.32;2.55;;;;;;;;;;6266181;28;20025;-82
2023/07/08 12:44:29;;;;;;;6.43;2.42;;;;;;;;;;6247749;28;20025;-85
2023/07/08 12:47:29;;;;;;;8.27;3.03;;;;;;;;;;6267756;28;20032;-83
2023/07/08 12:50:29;;;;;;;3.05;2.13;;;;;;;;;;6263764;28;20243;-84
2023/07/08 12:53:31;;;;;;;3.27;2.20;;;;;;;;;;6258839;28;20027;-83
2023/07/08 12:56:32;;;;;;;6.38;2.25;;;;;;;;;;6272203;28;20270;-84
2023/07/08 12:59:32;;;;;;;5.10;2.00;;;;;;;;;;6265206;28;20025;-84
2023/07/08 13:02:32;;;;;;;4.37;2.10;;;;;;;;;;6265962;28;20017;-83
2023/07/08 13:05:33;;;;;;;3.33;1.90;;;;;;;;;;6266541;28;20398;-83
2023/07/08 13:08:35;;;;;;;6.32;2.63;;;;;;;;;;6270013;28;20031;-83
2023/07/08 13:11:36;;;;;;;7.35;2.25;;;;;;;;;;6268408;28;20471;-84
2023/07/08 13:14:43;;;;;;;4.07;2.15;;;;;;;;;;6263798;28;20412;-75
2023/07/08 13:17:43;;;;;;;4.63;2.17;;;;;;;;;;6257583;28;20024;-75
2023/07/08 13:20:49;;;;;;;11.40;3.73;;;;;;;;;;6264489;28;20034;-75
2023/07/08 13:23:49;;;;;;;5.68;2.42;;;;;;;;;;6266900;28;20339;-76
2023/07/08 13:26:50;;;;;;;4.87;3.03;;;;;;;;;;6265009;28;20024;-75
2023/07/08 13:29:52;;;;;;;3.47;2.35;;;;;;;;;;6264810;28;20025;-75
2023/07/08 13:32:53;;;;;;;6.25;2.08;;;;;;;;;;6266434;28;20017;-75
2023/07/08 13:35:55;;;;;;;9.95;2.85;;;;;;;;;;6271663;28;20009;-75
2023/07/08 13:38:56;;;;;;;4.85;1.98;;;;;;;;;;6264518;28;20041;-75
2023/07/08 13:41:57;;;;;;;4.38;2.33;;;;;;;;;;6251694;28;20422;-75
2023/07/08 13:44:57;;;;;;;6.65;2.53;;;;;;;;;;6266738;28;20577;-82
2023/07/08 13:48:02;;;;;;;11.90;3.00;;;;;;;;;;6269135;28;20020;-82
2023/07/08 13:51:14;;;;;;;4.68;2.17;;;;;;;;;;6270912;28;20023;-82
2023/07/08 13:54:32;;;;;;;3.30;2.47;;;;;;;;;;6262961;28;20021;-81
2023/07/08 13:57:34;;;;;;;4.53;2.00;;;;;;;;;;6266994;28;20048;-81
2023/07/08 14:00:36;;;;;;;6.55;3.42;;;;;;;;;;6259779;28;20021;-82
2023/07/08 14:03:36;;;;;;;8.40;4.60;;;;;;;;;;6260390;28;20075;-82
2023/07/08 14:06:38;;;;;;;9.80;6.57;;;;;;;;;;6258640;28;20065;-82
2023/07/08 14:09:38;;;;;;;3.70;3.13;;;;;;;;;;6257353;28;20136;-82
2023/07/08 14:12:38;;;;;;;;;;;;;;;;;;6259458;28;20426;-82
2023/07/08 14:15:38;;;;;;;;;;;;;;;;;;6262351;28;20369;-82
2023/07/08 14:18:38;;;;;;;9.33;5.57;;;;;;;;;;6262392;28;19928;-84
2023/07/08 14:21:39;;;;;;;5.33;2.87;;;;;;;;;;6262677;28;20112;-84
2023/07/08 14:24:40;;;;;;;5.10;2.22;;;;;;;;;;6263085;28;20395;-82
2023/07/08 14:27:40;;;;;;;2.63;1.75;;;;;;;;;;6263548;28;20104;-82
2023/07/08 14:30:46;;;;;;;3.13;2.20;;;;;;;;;;6265113;28;20699;-83
2023/07/08 14:33:47;;;;;;;9.05;2.30;;;;;;;;;;6267158;28;20021;-81
2023/07/08 14:36:47;;;;;;;2.85;2.45;;;;;;;;;;6263290;28;20031;-83
2023/07/08 14:39:48;;;;;;;4.60;2.35;;;;;;;;;;6265149;28;20479;-82
2023/07/08 14:42:50;;;;;;;3.00;1.98;;;;;;;;;;6266640;28;20032;-82
2023/07/08 14:45:53;;;;;;;4.82;2.50;;;;;;;;;;6267384;28;20032;-82
2023/07/08 14:48:53;;;;;;;3.75;2.15;;;;;;;;;;6265208;28;20187;-83
2023/07/08 14:51:53;;;;;;;3.10;2.03;;;;;;;;;;6266649;28;20008;-83
2023/07/08 14:54:56;;;;;;;4.30;2.35;;;;;;;;;;6267463;28;20023;-76
2023/07/08 14:57:57;;;;;;;6.03;1.98;;;;;;;;;;6266336;28;20574;-76
2023/07/08 15:00:58;;;;;;;3.55;1.95;;;;;;;;;;6267173;28;20032;-76
2023/07/08 15:03:59;;;;;;;2.00;1.80;;;;;;;;;;6266872;28;20021;-76
2023/07/08 15:06:59;;;;;;;3.65;1.80;;;;;;;;;;6266450;28;20164;-76
2023/07/08 15:09:59;;;;;;;2.47;1.80;;;;;;;;;;6265341;28;20104;-78
2023/07/08 15:13:01;;;;;;;3.90;2.00;;;;;;;;;;6258921;28;20255;-77
2023/07/08 15:16:01;;;;;;;2.80;1.70;;;;;;;;;;6263930;28;20029;-76
2023/07/08 15:19:07;;;;;;;5.43;2.03;;;;;;;;;;6256956;28;20041;-76
2023/07/08 15:22:07;;;;;;;2.88;2.28;;;;;;;;;;6266374;28;20012;-76
2023/07/08 15:25:09;;;;;;;2.13;1.90;;;;;;;;;;6265698;28;20032;-76
2023/07/08 15:28:17;;;;;;;3.17;1.70;;;;;;;;;;6262826;28;20048;-76
2023/07/08 15:31:20;;;;;;;4.40;1.90;;;;;;;;;;6263950;28;20092;-76
2023/07/08 15:34:23;;;;;;;2.03;1.83;;;;;;;;;;6259471;28;20036;-83
2023/07/08 15:37:24;;;;;;;4.18;2.05;;;;;;;;;;6272132;28;20098;-83
2023/07/08 15:40:27;;;;;;;3.38;2.30;;;;;;;;;;6266504;28;20538;-82
2023/07/08 15:43:28;;;;;;;4.25;2.65;;;;;;;;;;6256906;28;20155;-83
2023/07/08 15:46:32;;;;;;;3.08;2.50;;;;;;;;;;6265264;28;20028;-82
2023/07/08 15:49:33;;;;;;;2.40;1.90;;;;;;;;;;6265885;28;20037;-83
2023/07/08 15:52:34;;;;;;;3.47;1.83;;;;;;;;;;6266260;28;20048;-82
2023/07/08 15:55:36;;;;;;;3.42;2.10;;;;;;;;;;6249526;28;20056;-83
2023/07/08 15:58:36;;;;;;;2.53;2.20;;;;;;;;;;6263392;28;20087;-81
2023/07/08 16:01:37;;;;;;;2.63;2.20;;;;;;;;;;6265754;28;20052;-81
2023/07/08 16:04:37;;;;;;;2.93;2.20;;;;;;;;;;6267064;28;20024;-82
2023/07/08 16:07:37;;;;;;;2.95;1.90;;;;;;;;;;6255886;28;20263;-83
2023/07/08 16:10:38;;;;;;;2.87;1.77;;;;;;;;;;6266784;28;20043;-82
2023/07/08 16:13:39;;;;;;;5.30;2.28;;;;;;;;;;6270497;28;20031;-75
2023/07/08 16:16:39;;;;;;;2.40;1.70;;;;;;;;;;6267326;28;20024;-75
2023/07/08 16:19:40;;;;;;;3.53;2.20;;;;;;;;;;6270448;28;20072;-75
2023/07/08 16:22:40;;;;;;;3.67;1.90;;;;;;;;;;6269693;28;20528;-76
2023/07/08 16:25:44;;;;;;;3.53;1.97;;;;;;;;;;6270325;28;20094;-76
2023/07/08 16:28:45;;;;;;;4.15;1.90;;;;;;;;;;6264771;28;20375;-76
2023/07/08 16:31:46;;;;;;;3.88;1.80;;;;;;;;;;6268593;28;20395;-76
2023/07/08 16:34:47;;;;;;;3.97;2.00;;;;;;;;;;6268652;28;20072;-77
2023/07/08 16:37:49;;;;;;;2.38;1.90;;;;;;;;;;6270773;28;20020;-75
2023/07/08 16:40:50;;;;;;;3.10;2.08;;;;;;;;;;6269141;28;20055;-74
2023/07/08 16:43:54;;;;;;;3.47;2.60;;;;;;;;;;6270284;28;20053;-75
2023/07/08 16:46:57;;;;;;;5.72;2.47;;;;;;;;;;6264373;28;20033;-75
2023/07/08 16:49:57;;;;;;;4.80;2.33;;;;;;;;;;6270265;28;20025;-75
2023/07/08 16:52:57;;;;;;;3.20;2.23;;;;;;;;;;6270189;28;20041;-75
2023/07/08 16:55:57;;;;;;;5.35;2.28;;;;;;;;;;6266062;28;20009;-75
2023/07/08 16:58:57;;;;;;;6.57;1.80;;;;;;;;;;6248214;28;20123;-75
2023/07/08 17:01:57;;;;;;;2.57;2.10;;;;;;;;;;6269389;28;20029;-76
2023/07/08 17:04:58;;;;;;;3.80;1.98;;;;;;;;;;6267264;28;20078;-82
2023/07/08 17:07:58;;;;;;;3.10;1.88;;;;;;;;;;6269425;28;20104;-82
2023/07/08 17:10:58;;;;;;;3.78;1.90;;;;;;;;;;6267867;28;20052;-82
2023/07/08 17:13:59;;;;;;;3.60;2.13;;;;;;;;;;6267165;28;20036;-80
2023/07/08 17:16:59;;;;;;;3.80;1.83;;;;;;;;;;6268759;28;20479;-82
2023/07/08 17:20:05;;;;;;;3.47;2.20;;;;;;;;;;6269386;28;20049;-81
2023/07/08 17:23:10;;;;;;;3.17;2.10;;;;;;;;;;6268041;28;20047;-83
2023/07/08 17:26:11;;;;;;;3.83;1.92;;;;;;;;;;6247183;28;20032;-84
2023/07/08 17:29:11;;;;;;;5.80;2.40;;;;;;;;;;6256439;28;20055;-83
2023/07/08 17:32:11;;;;;;;;;;;;;;;;;;6268730;28;20127;-83
2023/07/08 17:35:12;;;;;;;;;;;;;;;;;;6265056;28;19951;-85
2023/07/08 17:38:14;;;;;;;5.13;2.35;;;;;;;;;;6260513;28;19912;-82
2023/07/08 17:41:17;;;;;;;3.28;2.10;;;;;;;;;;6267940;28;20025;-82
2023/07/08 17:44:17;;;;;;;3.70;2.08;;;;;;;;;;6267483;28;20052;-81
2023/07/08 17:47:17;;;;;;;3.60;2.37;;;;;;;;;;6267820;28;20464;-83
2023/07/08 17:50:22;;;;;;;3.17;2.00;;;;;;;;;;6268348;28;20509;-84
2023/07/08 17:53:22;;;;;;;3.95;2.50;;;;;;;;;;6262475;28;20033;-82
2023/07/08 17:56:25;;;;;;;10.00;2.72;;;;;;;;;;6268333;28;20028;-83
2023/07/08 17:59:26;;;;;;;3.47;2.50;;;;;;;;;;6256077;28;20037;-84
2023/07/08 18:02:26;;;;;;;4.15;2.22;;;;;;;;;;6267534;28;20040;-83
2023/07/08 18:05:26;;;;;;;;;;;;;;;;;;6267522;28;20125;-82
2023/07/08 18:08:26;;;;;;;6.40;3.33;;;;;;;;;;6264917;28;19912;-83
2023/07/08 18:11:27;;;;;;;;;;;;;;;;;;6265138;28;20067;-83